RYR22DG EDDH-EPKK
Flight info
| Callsign | RYR22DG |
|---|---|
| Flight time | 1h 14m |
| Altitude | 33000 |
| Route | AMLUH2G AMLUH L619 BUMIL DCT ERNUD M748 BOLBO L986 LASIS T714 MOFKE |
| Aircraft | B38M/M-SDE1FGHILORVWXY/HB1 |
Departure
| Time | 2026-05-04 19:41 |
|---|---|
| Airport | Hamburg Helmut Schmidt Airport (EDDH) |
Arrival
| Time | 2026-05-04 20:55 |
|---|---|
| Airport | Kraków John Paul II International Airport (EPKK) |
| Time | Latitude | Longitude | Altitude | Speed | Heading |
|---|---|---|---|---|---|
| 2026-05-04 19:03 | 53.63074 | 10.00371 | 51 ft | 0 kts | 94° |
| 2026-05-04 19:33 | 53.63076 | 10.00341 | 49 ft | 4 kts | 102° |
| 2026-05-04 19:33 | 53.63085 | 10.00299 | 46 ft | 4 kts | 122° |
| 2026-05-04 19:33 | 53.63103 | 10.00268 | 47 ft | 4 kts | 154° |
| 2026-05-04 19:34 | 53.63119 | 10.00260 | 49 ft | 0 kts | 175° |
| 2026-05-04 19:36 | 53.63112 | 10.00261 | 44 ft | 4 kts | 175° |
| 2026-05-04 19:36 | 53.63046 | 10.00240 | 51 ft | 16 kts | 212° |
| 2026-05-04 19:36 | 53.62933 | 10.00116 | 49 ft | 21 kts | 212° |
| 2026-05-04 19:37 | 53.62856 | 9.99999 | 51 ft | 10 kts | 244° |
| 2026-05-04 19:37 | 53.62844 | 9.99956 | 48 ft | 0 kts | 244° |
| 2026-05-04 19:38 | 53.62843 | 9.99953 | 48 ft | 0 kts | 244° |
| 2026-05-04 19:38 | 53.62839 | 9.99940 | 50 ft | 4 kts | 244° |
| 2026-05-04 19:39 | 53.62819 | 9.99874 | 46 ft | 9 kts | 243° |
| 2026-05-04 19:39 | 53.62813 | 9.99793 | 48 ft | 3 kts | 327° |
| 2026-05-04 19:39 | 53.62821 | 9.99787 | 48 ft | 0 kts | 333° |
| 2026-05-04 19:40 | 53.62824 | 9.99784 | 48 ft | 3 kts | 333° |
| 2026-05-04 19:40 | 53.62998 | 9.99633 | 48 ft | 64 kts | 333° |
| 2026-05-04 19:40 | 53.63613 | 9.99101 | 49 ft | 129 kts | 333° |
| 2026-05-04 19:41 | 53.64509 | 9.98333 | 354 ft | 151 kts | 333° |
| 2026-05-04 19:41 | 53.65485 | 9.97511 | 921 ft | 163 kts | 333° |
| 2026-05-04 19:41 | 53.66507 | 9.96618 | 1648 ft | 165 kts | 332° |
| 2026-05-04 19:41 | 53.67568 | 9.95677 | 2246 ft | 182 kts | 330° |
| 2026-05-04 19:42 | 53.68762 | 9.94700 | 2838 ft | 198 kts | 338° |
| 2026-05-04 19:42 | 53.70166 | 9.94305 | 3581 ft | 212 kts | 358° |
| 2026-05-04 19:42 | 53.71687 | 9.94412 | 4288 ft | 226 kts | 2° |
| 2026-05-04 19:42 | 53.73214 | 9.95085 | 5148 ft | 233 kts | 28° |
| 2026-05-04 19:43 | 53.74376 | 9.96988 | 6007 ft | 239 kts | 59° |
| 2026-05-04 19:43 | 53.74964 | 9.99629 | 6812 ft | 243 kts | 78° |
| 2026-05-04 19:43 | 53.74968 | 10.02489 | 7474 ft | 250 kts | 109° |
| 2026-05-04 19:43 | 53.74087 | 10.05071 | 8013 ft | 262 kts | 131° |
| 2026-05-04 19:44 | 53.73029 | 10.07678 | 8487 ft | 283 kts | 125° |
| 2026-05-04 19:44 | 53.71972 | 10.10597 | 9076 ft | 296 kts | 123° |
| 2026-05-04 19:44 | 53.70917 | 10.13616 | 9784 ft | 301 kts | 123° |
| 2026-05-04 19:44 | 53.69863 | 10.16687 | 10013 ft | 303 kts | 123° |
| 2026-05-04 19:45 | 53.68549 | 10.19530 | 10408 ft | 315 kts | 143° |
| 2026-05-04 19:45 | 53.66598 | 10.21299 | 10788 ft | 326 kts | 166° |
| 2026-05-04 19:45 | 53.64373 | 10.22362 | 11279 ft | 339 kts | 167° |
| 2026-05-04 19:45 | 53.62082 | 10.23450 | 12009 ft | 344 kts | 167° |
| 2026-05-04 19:46 | 53.59759 | 10.24533 | 12827 ft | 349 kts | 168° |
| 2026-05-04 19:46 | 53.57449 | 10.25901 | 13639 ft | 357 kts | 154° |
| 2026-05-04 19:46 | 53.55520 | 10.28600 | 14439 ft | 368 kts | 132° |
| 2026-05-04 19:46 | 53.53912 | 10.31974 | 15178 ft | 371 kts | 132° |
| 2026-05-04 19:47 | 53.52240 | 10.35306 | 15971 ft | 375 kts | 133° |
| 2026-05-04 19:47 | 53.50557 | 10.38641 | 16685 ft | 381 kts | 133° |
| 2026-05-04 19:47 | 53.48910 | 10.42164 | 17386 ft | 388 kts | 124° |
| 2026-05-04 19:47 | 53.47575 | 10.46132 | 18131 ft | 393 kts | 120° |
| 2026-05-04 19:48 | 53.46279 | 10.50191 | 18757 ft | 398 kts | 120° |
| 2026-05-04 19:48 | 53.44971 | 10.54333 | 19421 ft | 401 kts | 120° |
| 2026-05-04 19:48 | 53.43672 | 10.58495 | 20068 ft | 404 kts | 120° |
| 2026-05-04 19:48 | 53.42374 | 10.62696 | 20713 ft | 407 kts | 120° |
| 2026-05-04 19:49 | 53.41075 | 10.66948 | 21341 ft | 411 kts | 120° |
| 2026-05-04 19:49 | 53.39775 | 10.71244 | 21968 ft | 414 kts | 120° |
| 2026-05-04 19:49 | 53.38479 | 10.75566 | 22581 ft | 417 kts | 120° |
| 2026-05-04 19:49 | 53.37173 | 10.79950 | 22919 ft | 423 kts | 120° |
| 2026-05-04 19:50 | 53.36306 | 10.82869 | 22950 ft | 422 kts | 120° |
| 2026-05-04 19:50 | 53.34514 | 10.88639 | 22947 ft | 419 kts | 128° |
| 2026-05-04 19:50 | 53.32618 | 10.92236 | 22973 ft | 412 kts | 142° |
| 2026-05-04 19:50 | 53.30571 | 10.95615 | 22957 ft | 415 kts | 139° |
| 2026-05-04 19:51 | 53.28564 | 10.99134 | 23308 ft | 418 kts | 138° |
| 2026-05-04 19:51 | 53.26566 | 11.02672 | 23869 ft | 420 kts | 138° |
| 2026-05-04 19:51 | 53.25236 | 11.05041 | 24181 ft | 423 kts | 138° |
| 2026-05-04 19:51 | 53.23218 | 11.08642 | 24661 ft | 426 kts | 138° |
| 2026-05-04 19:52 | 53.21186 | 11.12272 | 25139 ft | 428 kts | 138° |
| 2026-05-04 19:52 | 53.19149 | 11.15902 | 25690 ft | 429 kts | 138° |
| 2026-05-04 19:52 | 53.17102 | 11.19548 | 26120 ft | 433 kts | 138° |
| 2026-05-04 19:52 | 53.15031 | 11.23231 | 26569 ft | 436 kts | 138° |
| 2026-05-04 19:53 | 53.12950 | 11.26925 | 27012 ft | 439 kts | 138° |
| 2026-05-04 19:53 | 53.10695 | 11.30326 | 27370 ft | 437 kts | 148° |
| 2026-05-04 19:53 | 53.08273 | 11.33419 | 27737 ft | 441 kts | 147° |
| 2026-05-04 19:53 | 53.05842 | 11.36561 | 28199 ft | 443 kts | 148° |
| 2026-05-04 19:54 | 53.03395 | 11.39714 | 28615 ft | 446 kts | 148° |
| 2026-05-04 19:54 | 53.00933 | 11.42881 | 29036 ft | 449 kts | 148° |
| 2026-05-04 19:54 | 52.98456 | 11.46062 | 29440 ft | 452 kts | 148° |
| 2026-05-04 19:54 | 52.95966 | 11.49255 | 29839 ft | 454 kts | 148° |
| 2026-05-04 19:55 | 52.93455 | 11.52475 | 30200 ft | 457 kts | 148° |
| 2026-05-04 19:55 | 52.90936 | 11.55705 | 30536 ft | 460 kts | 148° |
| 2026-05-04 19:55 | 52.88403 | 11.58949 | 30859 ft | 462 kts | 148° |
| 2026-05-04 19:55 | 52.85876 | 11.62180 | 31180 ft | 464 kts | 148° |
| 2026-05-04 19:56 | 52.83312 | 11.65453 | 31510 ft | 467 kts | 148° |
| 2026-05-04 19:56 | 52.80737 | 11.68736 | 31810 ft | 469 kts | 148° |
| 2026-05-04 19:56 | 52.78150 | 11.72027 | 32230 ft | 469 kts | 148° |
| 2026-05-04 19:56 | 52.75570 | 11.75305 | 32689 ft | 468 kts | 148° |
| 2026-05-04 19:57 | 52.72987 | 11.78583 | 32965 ft | 469 kts | 148° |
| 2026-05-04 19:57 | 52.67821 | 11.85122 | 32960 ft | 465 kts | 148° |
| 2026-05-04 19:58 | 52.62756 | 11.91767 | 32949 ft | 469 kts | 142° |
| 2026-05-04 19:58 | 52.57925 | 11.98912 | 32951 ft | 469 kts | 143° |
| 2026-05-04 19:59 | 52.53034 | 12.06000 | 32938 ft | 469 kts | 144° |
| 2026-05-04 19:59 | 52.48117 | 12.13087 | 32951 ft | 471 kts | 144° |
| 2026-05-04 20:00 | 52.43187 | 12.20168 | 32949 ft | 470 kts | 144° |
| 2026-05-04 20:00 | 52.38259 | 12.27226 | 32950 ft | 470 kts | 144° |
| 2026-05-04 20:01 | 52.33383 | 12.34251 | 32941 ft | 470 kts | 140° |
| 2026-05-04 20:01 | 52.28869 | 12.42035 | 32944 ft | 472 kts | 139° |
| 2026-05-04 20:02 | 52.24186 | 12.49507 | 32951 ft | 469 kts | 142° |
| 2026-05-04 20:02 | 52.19364 | 12.56697 | 32943 ft | 470 kts | 142° |
| 2026-05-04 20:03 | 52.14558 | 12.63897 | 32943 ft | 468 kts | 142° |
| 2026-05-04 20:03 | 52.09727 | 12.71033 | 32945 ft | 468 kts | 143° |
| 2026-05-04 20:04 | 52.04923 | 12.78083 | 32934 ft | 468 kts | 142° |
| 2026-05-04 20:04 | 52.00089 | 12.85161 | 32930 ft | 468 kts | 142° |
| 2026-05-04 20:05 | 51.95250 | 12.92222 | 32940 ft | 468 kts | 142° |
| 2026-05-04 20:05 | 51.90409 | 12.99265 | 32939 ft | 468 kts | 142° |
| 2026-05-04 20:06 | 51.85554 | 13.06307 | 32937 ft | 468 kts | 142° |
| 2026-05-04 20:06 | 51.80758 | 13.13454 | 32926 ft | 472 kts | 134° |
| 2026-05-04 20:06 | 51.78940 | 13.17893 | 32938 ft | 478 kts | 118° |
| 2026-05-04 20:07 | 51.77618 | 13.22845 | 32900 ft | 482 kts | 116° |
| 2026-05-04 20:07 | 51.75071 | 13.32737 | 32944 ft | 479 kts | 115° |
| 2026-05-04 20:08 | 51.72553 | 13.42695 | 32942 ft | 479 kts | 115° |
| 2026-05-04 20:08 | 51.70036 | 13.52645 | 32944 ft | 479 kts | 115° |
| 2026-05-04 20:09 | 51.67495 | 13.62646 | 32948 ft | 479 kts | 115° |
| 2026-05-04 20:09 | 51.64977 | 13.72514 | 32957 ft | 480 kts | 115° |
| 2026-05-04 20:10 | 51.62431 | 13.82450 | 32957 ft | 480 kts | 115° |
| 2026-05-04 20:10 | 51.59879 | 13.92364 | 32958 ft | 480 kts | 115° |
| 2026-05-04 20:11 | 51.57314 | 14.02286 | 32949 ft | 480 kts | 115° |
| 2026-05-04 20:11 | 51.54742 | 14.12191 | 32954 ft | 480 kts | 115° |
| 2026-05-04 20:12 | 51.52183 | 14.22012 | 32956 ft | 480 kts | 115° |
| 2026-05-04 20:12 | 51.50305 | 14.32306 | 32952 ft | 483 kts | 105° |
| 2026-05-04 20:13 | 51.48748 | 14.42790 | 32949 ft | 483 kts | 105° |
| 2026-05-04 20:13 | 51.47186 | 14.53280 | 32952 ft | 483 kts | 105° |
| 2026-05-04 20:14 | 51.45619 | 14.63738 | 32950 ft | 482 kts | 105° |
| 2026-05-04 20:14 | 51.44041 | 14.74198 | 32950 ft | 482 kts | 105° |
| 2026-05-04 20:15 | 51.42457 | 14.84639 | 32952 ft | 482 kts | 105° |
| 2026-05-04 20:15 | 51.40855 | 14.95072 | 32951 ft | 481 kts | 108° |
| 2026-05-04 20:16 | 51.38417 | 15.04992 | 32933 ft | 479 kts | 115° |
| 2026-05-04 20:16 | 51.35898 | 15.14769 | 32949 ft | 478 kts | 115° |
| 2026-05-04 20:17 | 51.33353 | 15.24580 | 32944 ft | 478 kts | 115° |
| 2026-05-04 20:17 | 51.30793 | 15.34403 | 32948 ft | 478 kts | 115° |
| 2026-05-04 20:18 | 51.28229 | 15.44201 | 32931 ft | 478 kts | 115° |
| 2026-05-04 20:18 | 51.25648 | 15.54020 | 32944 ft | 479 kts | 115° |
| 2026-05-04 20:19 | 51.23075 | 15.63768 | 32938 ft | 479 kts | 115° |
| 2026-05-04 20:19 | 51.20478 | 15.73564 | 32947 ft | 478 kts | 115° |
| 2026-05-04 20:20 | 51.17878 | 15.83336 | 32941 ft | 478 kts | 115° |
| 2026-05-04 20:20 | 51.15334 | 15.93164 | 32941 ft | 480 kts | 114° |
| 2026-05-04 20:21 | 51.12812 | 16.02934 | 32947 ft | 480 kts | 114° |
| 2026-05-04 20:21 | 51.08982 | 16.17676 | 32940 ft | 480 kts | 114° |
| 2026-05-04 20:22 | 51.06416 | 16.27501 | 32939 ft | 480 kts | 114° |
| 2026-05-04 20:22 | 51.03847 | 16.37297 | 32938 ft | 479 kts | 114° |
| 2026-05-04 20:23 | 51.01294 | 16.46991 | 32944 ft | 479 kts | 114° |
| 2026-05-04 20:23 | 50.98712 | 16.56758 | 32939 ft | 479 kts | 114° |
| 2026-05-04 20:24 | 50.96124 | 16.66511 | 32934 ft | 479 kts | 114° |
| 2026-05-04 20:24 | 50.93532 | 16.76241 | 32937 ft | 479 kts | 114° |
| 2026-05-04 20:25 | 50.91838 | 16.82574 | 32939 ft | 479 kts | 114° |
| 2026-05-04 20:25 | 50.91160 | 16.85105 | 32942 ft | 479 kts | 114° |
| 2026-05-04 20:26 | 50.88553 | 16.94811 | 32942 ft | 479 kts | 114° |
| 2026-05-04 20:26 | 50.85935 | 17.04515 | 32940 ft | 479 kts | 114° |
| 2026-05-04 20:27 | 50.83306 | 17.14183 | 32933 ft | 478 kts | 115° |
| 2026-05-04 20:27 | 50.80643 | 17.23852 | 32942 ft | 479 kts | 115° |
| 2026-05-04 20:28 | 50.77995 | 17.33434 | 32945 ft | 478 kts | 115° |
| 2026-05-04 20:28 | 50.75325 | 17.43057 | 32947 ft | 478 kts | 115° |
| 2026-05-04 20:29 | 50.72661 | 17.52701 | 32949 ft | 479 kts | 114° |
| 2026-05-04 20:29 | 50.70018 | 17.62331 | 32928 ft | 478 kts | 114° |
| 2026-05-04 20:30 | 50.68700 | 17.67116 | 32609 ft | 474 kts | 114° |
| 2026-05-04 20:30 | 50.67377 | 17.71909 | 31488 ft | 480 kts | 114° |
| 2026-05-04 20:30 | 50.66031 | 17.76772 | 30389 ft | 487 kts | 114° |
| 2026-05-04 20:30 | 50.64671 | 17.81678 | 29450 ft | 487 kts | 114° |
| 2026-05-04 20:31 | 50.63314 | 17.86564 | 28419 ft | 488 kts | 114° |
| 2026-05-04 20:31 | 50.61959 | 17.91433 | 27693 ft | 482 kts | 115° |
| 2026-05-04 20:31 | 50.60586 | 17.96143 | 27052 ft | 476 kts | 117° |
| 2026-05-04 20:31 | 50.59310 | 18.00920 | 26274 ft | 474 kts | 107° |
| 2026-05-04 20:32 | 50.58757 | 18.06013 | 25627 ft | 469 kts | 95° |
| 2026-05-04 20:32 | 50.58500 | 18.11108 | 25034 ft | 464 kts | 94° |
| 2026-05-04 20:32 | 50.58297 | 18.16147 | 24375 ft | 461 kts | 94° |
| 2026-05-04 20:32 | 50.58119 | 18.21173 | 23720 ft | 458 kts | 94° |
| 2026-05-04 20:33 | 50.57957 | 18.26157 | 22984 ft | 455 kts | 93° |
| 2026-05-04 20:33 | 50.57801 | 18.31103 | 22306 ft | 451 kts | 93° |
| 2026-05-04 20:33 | 50.57648 | 18.36003 | 21666 ft | 446 kts | 94° |
| 2026-05-04 20:33 | 50.57495 | 18.40858 | 21059 ft | 441 kts | 94° |
| 2026-05-04 20:34 | 50.57331 | 18.45612 | 20767 ft | 430 kts | 94° |
| 2026-05-04 20:34 | 50.57157 | 18.50318 | 20548 ft | 432 kts | 94° |
| 2026-05-04 20:34 | 50.56983 | 18.55029 | 20283 ft | 431 kts | 94° |
| 2026-05-04 20:34 | 50.56809 | 18.59726 | 19983 ft | 429 kts | 94° |
| 2026-05-04 20:35 | 50.56634 | 18.64396 | 19672 ft | 424 kts | 95° |
| 2026-05-04 20:35 | 50.56460 | 18.68963 | 19399 ft | 413 kts | 95° |
| 2026-05-04 20:35 | 50.56389 | 18.73439 | 19059 ft | 406 kts | 90° |
| 2026-05-04 20:35 | 50.56430 | 18.77836 | 18793 ft | 398 kts | 90° |
| 2026-05-04 20:36 | 50.56453 | 18.82150 | 18519 ft | 391 kts | 91° |
| 2026-05-04 20:36 | 50.56466 | 18.86389 | 18245 ft | 383 kts | 91° |
| 2026-05-04 20:36 | 50.56475 | 18.90545 | 17948 ft | 377 kts | 91° |
| 2026-05-04 20:36 | 50.56482 | 18.94631 | 17661 ft | 369 kts | 91° |
| 2026-05-04 20:37 | 50.56486 | 18.98584 | 17410 ft | 362 kts | 91° |
| 2026-05-04 20:37 | 50.56489 | 19.02512 | 17146 ft | 356 kts | 91° |
| 2026-05-04 20:37 | 50.56491 | 19.06369 | 16890 ft | 349 kts | 91° |
| 2026-05-04 20:37 | 50.56492 | 19.10152 | 16648 ft | 343 kts | 91° |
| 2026-05-04 20:38 | 50.56481 | 19.13884 | 16370 ft | 338 kts | 92° |
| 2026-05-04 20:38 | 50.56464 | 19.17555 | 16140 ft | 334 kts | 92° |
| 2026-05-04 20:38 | 50.56447 | 19.21209 | 15908 ft | 335 kts | 92° |
| 2026-05-04 20:38 | 50.56429 | 19.24860 | 15672 ft | 334 kts | 92° |
| 2026-05-04 20:39 | 50.56360 | 19.27271 | 15524 ft | 332 kts | 100° |
| 2026-05-04 20:39 | 50.55722 | 19.30793 | 15305 ft | 341 kts | 119° |
| 2026-05-04 20:39 | 50.54577 | 19.34147 | 15087 ft | 356 kts | 120° |
| 2026-05-04 20:39 | 50.53433 | 19.37717 | 14856 ft | 373 kts | 119° |
| 2026-05-04 20:40 | 50.52265 | 19.41443 | 14623 ft | 386 kts | 119° |
| 2026-05-04 20:40 | 50.51083 | 19.45263 | 14420 ft | 391 kts | 119° |
| 2026-05-04 20:40 | 50.49892 | 19.49128 | 14235 ft | 393 kts | 119° |
| 2026-05-04 20:40 | 50.48702 | 19.52990 | 14043 ft | 393 kts | 119° |
| 2026-05-04 20:41 | 50.47515 | 19.56836 | 13874 ft | 392 kts | 119° |
| 2026-05-04 20:41 | 50.46326 | 19.60683 | 13689 ft | 391 kts | 119° |
| 2026-05-04 20:41 | 50.45138 | 19.64522 | 13484 ft | 390 kts | 119° |
| 2026-05-04 20:41 | 50.43956 | 19.68339 | 13081 ft | 388 kts | 119° |
| 2026-05-04 20:42 | 50.42778 | 19.72133 | 12541 ft | 386 kts | 119° |
| 2026-05-04 20:42 | 50.41621 | 19.75855 | 12014 ft | 383 kts | 118° |
| 2026-05-04 20:42 | 50.40456 | 19.79596 | 11494 ft | 380 kts | 118° |
| 2026-05-04 20:42 | 50.39307 | 19.83281 | 11205 ft | 371 kts | 119° |
| 2026-05-04 20:43 | 50.38191 | 19.86848 | 11047 ft | 359 kts | 119° |
| 2026-05-04 20:43 | 50.37107 | 19.90310 | 10847 ft | 348 kts | 119° |
| 2026-05-04 20:43 | 50.36053 | 19.93671 | 10672 ft | 338 kts | 119° |
| 2026-05-04 20:43 | 50.35031 | 19.96928 | 10494 ft | 328 kts | 119° |
| 2026-05-04 20:44 | 50.34036 | 20.00097 | 10274 ft | 321 kts | 119° |
| 2026-05-04 20:44 | 50.33064 | 20.03188 | 10149 ft | 311 kts | 119° |
| 2026-05-04 20:44 | 50.32120 | 20.06186 | 10009 ft | 302 kts | 119° |
| 2026-05-04 20:44 | 50.31199 | 20.09111 | 9708 ft | 299 kts | 119° |
| 2026-05-04 20:45 | 50.30280 | 20.12024 | 9358 ft | 297 kts | 119° |
| 2026-05-04 20:45 | 50.29367 | 20.14916 | 9024 ft | 296 kts | 119° |
| 2026-05-04 20:45 | 50.28458 | 20.17791 | 8701 ft | 294 kts | 119° |
| 2026-05-04 20:45 | 50.27562 | 20.20621 | 8503 ft | 286 kts | 119° |
| 2026-05-04 20:46 | 50.26702 | 20.23338 | 8386 ft | 277 kts | 119° |
| 2026-05-04 20:46 | 50.25862 | 20.25986 | 8266 ft | 269 kts | 119° |
| 2026-05-04 20:46 | 50.25042 | 20.28568 | 8107 ft | 262 kts | 120° |
| 2026-05-04 20:46 | 50.24001 | 20.30830 | 7868 ft | 254 kts | 145° |
| 2026-05-04 20:47 | 50.22449 | 20.31997 | 7570 ft | 246 kts | 169° |
| 2026-05-04 20:47 | 50.20786 | 20.32601 | 7310 ft | 244 kts | 170° |
| 2026-05-04 20:47 | 50.19129 | 20.33189 | 7041 ft | 244 kts | 171° |
| 2026-05-04 20:47 | 50.17458 | 20.33288 | 6715 ft | 240 kts | 195° |
| 2026-05-04 20:48 | 50.15975 | 20.32197 | 6414 ft | 236 kts | 221° |
| 2026-05-04 20:48 | 50.15017 | 20.30159 | 6138 ft | 233 kts | 248° |
| 2026-05-04 20:48 | 50.14598 | 20.27745 | 5971 ft | 228 kts | 257° |
| 2026-05-04 20:48 | 50.14270 | 20.25327 | 5961 ft | 229 kts | 257° |
| 2026-05-04 20:49 | 50.13941 | 20.22925 | 5954 ft | 221 kts | 257° |
| 2026-05-04 20:49 | 50.13631 | 20.20673 | 5870 ft | 210 kts | 257° |
| 2026-05-04 20:49 | 50.13326 | 20.18463 | 5604 ft | 208 kts | 257° |
| 2026-05-04 20:49 | 50.13021 | 20.16264 | 5347 ft | 205 kts | 257° |
| 2026-05-04 20:50 | 50.12725 | 20.14132 | 5093 ft | 198 kts | 257° |
| 2026-05-04 20:50 | 50.12438 | 20.12065 | 4836 ft | 192 kts | 257° |
| 2026-05-04 20:50 | 50.12160 | 20.10060 | 4577 ft | 186 kts | 256° |
| 2026-05-04 20:50 | 50.11890 | 20.08117 | 4331 ft | 181 kts | 256° |
| 2026-05-04 20:51 | 50.11603 | 20.06061 | 4319 ft | 195 kts | 256° |
| 2026-05-04 20:51 | 50.11331 | 20.04135 | 4125 ft | 178 kts | 256° |
| 2026-05-04 20:51 | 50.11076 | 20.02289 | 3823 ft | 168 kts | 256° |
| 2026-05-04 20:51 | 50.10842 | 20.00580 | 3593 ft | 153 kts | 256° |
| 2026-05-04 20:52 | 50.10632 | 19.99059 | 3379 ft | 134 kts | 256° |
| 2026-05-04 20:52 | 50.10442 | 19.97689 | 3159 ft | 128 kts | 255° |
| 2026-05-04 20:52 | 50.10250 | 19.96306 | 2955 ft | 133 kts | 256° |
| 2026-05-04 20:52 | 50.10055 | 19.94905 | 2758 ft | 133 kts | 256° |
| 2026-05-04 20:53 | 50.09860 | 19.93488 | 2565 ft | 133 kts | 256° |
| 2026-05-04 20:53 | 50.09674 | 19.92090 | 2401 ft | 133 kts | 256° |
| 2026-05-04 20:53 | 50.09470 | 19.90678 | 2230 ft | 134 kts | 254° |
| 2026-05-04 20:53 | 50.09240 | 19.89229 | 2045 ft | 139 kts | 255° |
| 2026-05-04 20:54 | 50.09042 | 19.87744 | 1906 ft | 142 kts | 258° |
| 2026-05-04 20:54 | 50.08849 | 19.86233 | 1661 ft | 145 kts | 256° |
| 2026-05-04 20:54 | 50.08639 | 19.84713 | 1457 ft | 143 kts | 257° |
| 2026-05-04 20:54 | 50.08417 | 19.83193 | 1260 ft | 145 kts | 257° |
| 2026-05-04 20:55 | 50.08207 | 19.81660 | 1067 ft | 144 kts | 259° |
| 2026-05-04 20:55 | 50.08003 | 19.80146 | 849 ft | 141 kts | 259° |
| 2026-05-04 20:55 | 50.07817 | 19.78797 | 805 ft | 100 kts | 256° |
| 2026-05-04 20:55 | 50.07723 | 19.78137 | 801 ft | 29 kts | 248° |
| 2026-05-04 20:56 | 50.07573 | 19.78088 | 802 ft | 23 kts | 183° |
| 2026-05-04 20:56 | 50.07471 | 19.78111 | 802 ft | 8 kts | 113° |
| 2026-05-04 20:56 | 50.07480 | 19.78203 | 802 ft | 11 kts | 77° |
| 2026-05-04 20:56 | 50.07501 | 19.78350 | 802 ft | 17 kts | 78° |
| 2026-05-04 20:57 | 50.07527 | 19.78539 | 802 ft | 18 kts | 78° |
| 2026-05-04 20:57 | 50.07556 | 19.78746 | 802 ft | 21 kts | 77° |
| 2026-05-04 20:57 | 50.07584 | 19.78950 | 802 ft | 16 kts | 78° |
| 2026-05-04 20:57 | 50.07609 | 19.79133 | 802 ft | 19 kts | 78° |
| 2026-05-04 20:58 | 50.07639 | 19.79344 | 802 ft | 21 kts | 77° |
| 2026-05-04 20:58 | 50.07667 | 19.79549 | 802 ft | 20 kts | 78° |
| 2026-05-04 20:58 | 50.07654 | 19.79697 | 802 ft | 13 kts | 158° |
| 2026-05-04 20:58 | 50.07554 | 19.79728 | 802 ft | 16 kts | 168° |
| 2026-05-04 20:59 | 50.07436 | 19.79768 | 802 ft | 19 kts | 167° |
| 2026-05-04 20:59 | 50.07372 | 19.79858 | 802 ft | 13 kts | 75° |
| 2026-05-04 20:59 | 50.07381 | 19.79985 | 802 ft | 9 kts | 133° |
| 2026-05-04 20:59 | 50.07334 | 19.79997 | 802 ft | 6 kts | 171° |
| 2026-05-04 21:00 | 50.07312 | 19.80005 | 802 ft | 0 kts | 167° |
| 2026-05-04 21:00 | 50.07311 | 19.80005 | 802 ft | 0 kts | 167° |